sensor_id;sensor_type;location;lat;lon;timestamp;temperature;humidity
50907;DHT22;36882;27.680;85.304;2023-07-22T00:01:37;22.70;99.90
50907;DHT22;36882;27.680;85.304;2023-07-22T00:04:07;22.70;99.90
50907;DHT22;36882;27.680;85.304;2023-07-22T00:06:37;22.80;99.90
50907;DHT22;36882;27.680;85.304;2023-07-22T00:09:06;22.90;99.90
50907;DHT22;36882;27.680;85.304;2023-07-22T00:11:36;23.00;99.90
50907;DHT22;36882;27.680;85.304;2023-07-22T00:14:06;23.00;99.90
50907;DHT22;36882;27.680;85.304;2023-07-22T00:16:35;23.10;99.90
50907;DHT22;36882;27.680;85.304;2023-07-22T00:19:05;23.00;99.90
50907;DHT22;36882;27.680;85.304;2023-07-22T00:21:36;23.00;99.90
50907;DHT22;36882;27.680;85.304;2023-07-22T00:24:08;23.10;99.90
50907;DHT22;36882;27.680;85.304;2023-07-22T00:26:42;23.10;99.90
50907;DHT22;36882;27.680;85.304;2023-07-22T00:29:12;23.10;99.90
50907;DHT22;36882;27.680;85.304;2023-07-22T00:31:43;23.30;99.90
50907;DHT22;36882;27.680;85.304;2023-07-22T00:34:13;23.30;99.90
50907;DHT22;36882;27.680;85.304;2023-07-22T00:36:43;23.30;99.90
50907;DHT22;36882;27.680;85.304;2023-07-22T00:39:16;23.30;99.90
50907;DHT22;36882;27.680;85.304;2023-07-22T00:41:47;23.30;99.90
50907;DHT22;36882;27.680;85.304;2023-07-22T00:44:16;23.20;99.90
50907;DHT22;36882;27.680;85.304;2023-07-22T00:46:47;23.10;99.90
50907;DHT22;36882;27.680;85.304;2023-07-22T00:49:30;23.00;99.90
50907;DHT22;36882;27.680;85.304;2023-07-22T00:52:01;22.80;99.90
50907;DHT22;36882;27.680;85.304;2023-07-22T00:54:32;23.00;99.90
50907;DHT22;36882;27.680;85.304;2023-07-22T00:57:03;23.00;99.90
50907;DHT22;36882;27.680;85.304;2023-07-22T00:59:32;23.10;99.90
50907;DHT22;36882;27.680;85.304;2023-07-22T01:02:02;23.10;99.90
50907;DHT22;36882;27.680;85.304;2023-07-22T01:10:16;23.20;99.90
50907;DHT22;36882;27.680;85.304;2023-07-22T01:12:46;23.30;99.90
50907;DHT22;36882;27.680;85.304;2023-07-22T01:15:16;23.20;99.90
50907;DHT22;36882;27.680;85.304;2023-07-22T01:17:45;23.20;99.90
50907;DHT22;36882;27.680;85.304;2023-07-22T01:20:16;23.40;99.90
50907;DHT22;36882;27.680;85.304;2023-07-22T01:22:52;23.60;99.90
50907;DHT22;36882;27.680;85.304;2023-07-22T01:25:23;23.80;99.90
50907;DHT22;36882;27.680;85.304;2023-07-22T01:27:55;23.90;99.90
50907;DHT22;36882;27.680;85.304;2023-07-22T01:30:25;24.20;99.90
50907;DHT22;36882;27.680;85.304;2023-07-22T01:32:56;24.20;99.90
50907;DHT22;36882;27.680;85.304;2023-07-22T01:35:25;24.20;99.90
50907;DHT22;36882;27.680;85.304;2023-07-22T01:37:55;24.20;99.90
50907;DHT22;36882;27.680;85.304;2023-07-22T01:40:26;24.10;99.90
50907;DHT22;36882;27.680;85.304;2023-07-22T01:42:57;24.20;99.90
50907;DHT22;36882;27.680;85.304;2023-07-22T01:45:27;24.40;99.90
50907;DHT22;36882;27.680;85.304;2023-07-22T01:47:57;24.50;99.90
50907;DHT22;36882;27.680;85.304;2023-07-22T01:50:27;24.60;99.90
50907;DHT22;36882;27.680;85.304;2023-07-22T01:52:56;24.70;99.90
50907;DHT22;36882;27.680;85.304;2023-07-22T01:55:26;24.90;99.90
50907;DHT22;36882;27.680;85.304;2023-07-22T01:57:56;25.10;99.90
50907;DHT22;36882;27.680;85.304;2023-07-22T02:00:25;25.30;99.90
50907;DHT22;36882;27.680;85.304;2023-07-22T02:02:56;25.30;99.90
50907;DHT22;36882;27.680;85.304;2023-07-22T02:05:26;25.40;99.90
50907;DHT22;36882;27.680;85.304;2023-07-22T02:07:58;25.60;99.90
50907;DHT22;36882;27.680;85.304;2023-07-22T02:10:27;25.60;99.90
50907;DHT22;36882;27.680;85.304;2023-07-22T02:12:57;25.60;99.90
50907;DHT22;36882;27.680;85.304;2023-07-22T02:15:27;25.40;99.90
50907;DHT22;36882;27.680;85.304;2023-07-22T02:17:56;25.50;99.90
50907;DHT22;36882;27.680;85.304;2023-07-22T02:20:28;25.50;99.90
50907;DHT22;36882;27.680;85.304;2023-07-22T02:22:57;25.70;99.90
50907;DHT22;36882;27.680;85.304;2023-07-22T02:25:27;25.80;99.90
50907;DHT22;36882;27.680;85.304;2023-07-22T02:27:57;26.00;99.90
50907;DHT22;36882;27.680;85.304;2023-07-22T02:30:27;26.10;99.90
50907;DHT22;36882;27.680;85.304;2023-07-22T02:32:56;26.30;99.90
50907;DHT22;36882;27.680;85.304;2023-07-22T02:35:26;26.70;99.90
50907;DHT22;36882;27.680;85.304;2023-07-22T02:37:57;27.00;99.90
50907;DHT22;36882;27.680;85.304;2023-07-22T06:49:58;29.20;99.90
50907;DHT22;36882;27.680;85.304;2023-07-22T06:59:07;29.20;99.90
50907;DHT22;36882;27.680;85.304;2023-07-22T07:01:38;29.50;99.90
50907;DHT22;36882;27.680;85.304;2023-07-22T07:04:08;29.50;99.90
50907;DHT22;36882;27.680;85.304;2023-07-22T07:06:38;29.70;99.90
50907;DHT22;36882;27.680;85.304;2023-07-22T07:09:08;30.00;99.90
50907;DHT22;36882;27.680;85.304;2023-07-22T07:11:39;30.20;99.90
50907;DHT22;36882;27.680;85.304;2023-07-22T07:14:08;30.40;99.90
50907;DHT22;36882;27.680;85.304;2023-07-22T07:16:38;30.10;99.90
50907;DHT22;36882;27.680;85.304;2023-07-22T07:19:08;30.00;99.90
50907;DHT22;36882;27.680;85.304;2023-07-22T07:21:38;30.10;99.90
50907;DHT22;36882;27.680;85.304;2023-07-22T07:24:08;30.20;99.90
50907;DHT22;36882;27.680;85.304;2023-07-22T07:26:38;30.40;99.90
50907;DHT22;36882;27.680;85.304;2023-07-22T07:29:08;30.50;99.90
50907;DHT22;36882;27.680;85.304;2023-07-22T07:31:39;30.60;99.90
50907;DHT22;36882;27.680;85.304;2023-07-22T07:34:09;30.90;99.90
50907;DHT22;36882;27.680;85.304;2023-07-22T07:36:39;30.70;99.90
50907;DHT22;36882;27.680;85.304;2023-07-22T07:39:09;31.00;99.90
50907;DHT22;36882;27.680;85.304;2023-07-22T07:41:39;31.00;99.90
50907;DHT22;36882;27.680;85.304;2023-07-22T07:44:09;31.00;99.90
50907;DHT22;36882;27.680;85.304;2023-07-22T07:46:38;31.10;99.90
50907;DHT22;36882;27.680;85.304;2023-07-22T07:49:08;31.30;99.90
50907;DHT22;36882;27.680;85.304;2023-07-22T07:51:38;31.30;99.90
50907;DHT22;36882;27.680;85.304;2023-07-22T07:54:08;31.10;99.90
50907;DHT22;36882;27.680;85.304;2023-07-22T07:56:38;31.00;99.90
50907;DHT22;36882;27.680;85.304;2023-07-22T07:59:08;30.50;99.90
50907;DHT22;36882;27.680;85.304;2023-07-22T08:01:38;30.00;99.90
50907;DHT22;36882;27.680;85.304;2023-07-22T08:04:10;29.50;99.90
50907;DHT22;36882;27.680;85.304;2023-07-22T08:06:40;29.00;99.90
50907;DHT22;36882;27.680;85.304;2023-07-22T08:09:11;28.60;99.90
50907;DHT22;36882;27.680;85.304;2023-07-22T08:11:47;28.50;99.90
50907;DHT22;36882;27.680;85.304;2023-07-22T08:14:17;28.70;99.90
50907;DHT22;36882;27.680;85.304;2023-07-22T08:16:47;28.70;99.90
50907;DHT22;36882;27.680;85.304;2023-07-22T08:19:17;28.60;99.90
50907;DHT22;36882;27.680;85.304;2023-07-22T08:21:47;28.70;99.90
50907;DHT22;36882;27.680;85.304;2023-07-22T08:24:16;28.70;99.90
50907;DHT22;36882;27.680;85.304;2023-07-22T08:26:46;28.60;99.90
50907;DHT22;36882;27.680;85.304;2023-07-22T08:29:16;28.80;99.90
50907;DHT22;36882;27.680;85.304;2023-07-22T08:31:46;29.00;99.90
50907;DHT22;36882;27.680;85.304;2023-07-22T08:34:16;29.40;99.90
50907;DHT22;36882;27.680;85.304;2023-07-22T08:36:46;29.60;99.90
50907;DHT22;36882;27.680;85.304;2023-07-22T08:39:16;29.40;99.90
50907;DHT22;36882;27.680;85.304;2023-07-22T08:41:49;29.40;99.90
50907;DHT22;36882;27.680;85.304;2023-07-22T08:44:22;29.60;99.90
50907;DHT22;36882;27.680;85.304;2023-07-22T08:46:56;29.70;99.90
50907;DHT22;36882;27.680;85.304;2023-07-22T08:49:28;29.60;99.90
50907;DHT22;36882;27.680;85.304;2023-07-22T08:52:00;29.70;99.90
50907;DHT22;36882;27.680;85.304;2023-07-22T08:54:30;29.60;99.90
50907;DHT22;36882;27.680;85.304;2023-07-22T08:57:01;29.80;99.90
50907;DHT22;36882;27.680;85.304;2023-07-22T08:59:31;29.60;99.90
50907;DHT22;36882;27.680;85.304;2023-07-22T09:02:02;29.70;99.90
50907;DHT22;36882;27.680;85.304;2023-07-22T09:04:34;29.80;99.90
50907;DHT22;36882;27.680;85.304;2023-07-22T09:07:04;29.50;99.90
50907;DHT22;36882;27.680;85.304;2023-07-22T09:09:35;29.30;99.90
50907;DHT22;36882;27.680;85.304;2023-07-22T09:12:06;29.00;99.90
50907;DHT22;36882;27.680;85.304;2023-07-22T09:14:38;29.00;99.90
50907;DHT22;36882;27.680;85.304;2023-07-22T09:17:09;29.20;99.90
50907;DHT22;36882;27.680;85.304;2023-07-22T09:19:39;29.30;99.90
50907;DHT22;36882;27.680;85.304;2023-07-22T09:22:09;29.50;99.90
50907;DHT22;36882;27.680;85.304;2023-07-22T09:24:39;29.60;99.90
50907;DHT22;36882;27.680;85.304;2023-07-22T09:27:08;29.50;99.90
50907;DHT22;36882;27.680;85.304;2023-07-22T09:29:39;29.50;99.90
50907;DHT22;36882;27.680;85.304;2023-07-22T09:32:09;29.50;99.90
50907;DHT22;36882;27.680;85.304;2023-07-22T09:34:54;29.70;99.90
50907;DHT22;36882;27.680;85.304;2023-07-22T09:37:36;29.80;99.90
50907;DHT22;36882;27.680;85.304;2023-07-22T09:40:17;29.90;99.90
50907;DHT22;36882;27.680;85.304;2023-07-22T09:42:55;29.80;99.90
50907;DHT22;36882;27.680;85.304;2023-07-22T09:45:30;29.90;99.90
50907;DHT22;36882;27.680;85.304;2023-07-22T09:48:00;30.00;99.90
50907;DHT22;36882;27.680;85.304;2023-07-22T09:50:31;30.20;99.90
50907;DHT22;36882;27.680;85.304;2023-07-22T09:53:01;30.30;99.90
50907;DHT22;36882;27.680;85.304;2023-07-22T09:55:33;30.30;99.90
50907;DHT22;36882;27.680;85.304;2023-07-22T09:58:04;30.00;99.90
50907;DHT22;36882;27.680;85.304;2023-07-22T10:00:35;29.70;99.90
50907;DHT22;36882;27.680;85.304;2023-07-22T10:03:10;29.70;99.90
50907;DHT22;36882;27.680;85.304;2023-07-22T10:05:46;29.20;99.90
50907;DHT22;36882;27.680;85.304;2023-07-22T10:08:19;28.90;99.90
50907;DHT22;36882;27.680;85.304;2023-07-22T10:10:53;28.90;99.90
50907;DHT22;36882;27.680;85.304;2023-07-22T10:13:25;28.70;99.90
50907;DHT22;36882;27.680;85.304;2023-07-22T10:15:55;28.60;99.90
50907;DHT22;36882;27.680;85.304;2023-07-22T10:18:26;28.60;99.90
50907;DHT22;36882;27.680;85.304;2023-07-22T10:20:57;28.80;99.90
50907;DHT22;36882;27.680;85.304;2023-07-22T10:23:29;28.70;99.90
50907;DHT22;36882;27.680;85.304;2023-07-22T10:26:00;28.40;99.90
50907;DHT22;36882;27.680;85.304;2023-07-22T10:28:32;28.30;99.90
50907;DHT22;36882;27.680;85.304;2023-07-22T10:31:02;27.90;99.90
50907;DHT22;36882;27.680;85.304;2023-07-22T10:33:32;27.90;99.90
50907;DHT22;36882;27.680;85.304;2023-07-22T10:36:14;27.80;99.90
50907;DHT22;36882;27.680;85.304;2023-07-22T10:38:55;27.60;99.90
50907;DHT22;36882;27.680;85.304;2023-07-22T10:41:32;27.60;99.90
50907;DHT22;36882;27.680;85.304;2023-07-22T10:44:02;27.70;99.90
50907;DHT22;36882;27.680;85.304;2023-07-22T10:46:37;27.20;99.90
50907;DHT22;36882;27.680;85.304;2023-07-22T10:49:14;27.20;99.90
50907;DHT22;36882;27.680;85.304;2023-07-22T10:51:49;27.30;99.90
50907;DHT22;36882;27.680;85.304;2023-07-22T10:54:33;27.20;99.90
50907;DHT22;36882;27.680;85.304;2023-07-22T10:59:50;27.20;99.90
50907;DHT22;36882;27.680;85.304;2023-07-22T11:02:30;27.30;99.90
50907;DHT22;36882;27.680;85.304;2023-07-22T11:05:03;27.30;99.90
50907;DHT22;36882;27.680;85.304;2023-07-22T11:07:43;27.40;99.90
50907;DHT22;36882;27.680;85.304;2023-07-22T11:10:15;27.40;99.90
50907;DHT22;36882;27.680;85.304;2023-07-22T11:12:46;27.50;99.90
50907;DHT22;36882;27.680;85.304;2023-07-22T11:15:17;27.40;99.90
50907;DHT22;36882;27.680;85.304;2023-07-22T11:17:48;27.30;99.90
50907;DHT22;36882;27.680;85.304;2023-07-22T11:20:22;27.30;99.90
50907;DHT22;36882;27.680;85.304;2023-07-22T11:22:52;27.10;99.90
50907;DHT22;36882;27.680;85.304;2023-07-22T11:25:22;27.00;99.90
50907;DHT22;36882;27.680;85.304;2023-07-22T11:27:55;26.50;99.90
50907;DHT22;36882;27.680;85.304;2023-07-22T11:30:29;26.30;99.90
50907;DHT22;36882;27.680;85.304;2023-07-22T11:32:59;26.20;99.90
50907;DHT22;36882;27.680;85.304;2023-07-22T14:12:38;25.60;99.90
50907;DHT22;36882;27.680;85.304;2023-07-22T14:15:08;24.30;99.90
50907;DHT22;36882;27.680;85.304;2023-07-22T14:17:42;24.40;99.90
50907;DHT22;36882;27.680;85.304;2023-07-22T14:20:13;24.30;99.90
50907;DHT22;36882;27.680;85.304;2023-07-22T14:22:43;24.10;99.90
50907;DHT22;36882;27.680;85.304;2023-07-22T14:25:12;24.20;99.90
50907;DHT22;36882;27.680;85.304;2023-07-22T14:27:42;24.20;99.90
50907;DHT22;36882;27.680;85.304;2023-07-22T14:30:12;24.20;99.90
50907;DHT22;36882;27.680;85.304;2023-07-22T14:32:41;24.20;99.90
50907;DHT22;36882;27.680;85.304;2023-07-22T14:35:11;24.10;99.90
50907;DHT22;36882;27.680;85.304;2023-07-22T14:37:41;24.10;99.90
50907;DHT22;36882;27.680;85.304;2023-07-22T14:40:11;23.90;99.90
50907;DHT22;36882;27.680;85.304;2023-07-22T14:42:41;23.90;99.90
50907;DHT22;36882;27.680;85.304;2023-07-22T14:45:10;24.00;99.90
50907;DHT22;36882;27.680;85.304;2023-07-22T14:47:43;24.10;99.90
50907;DHT22;36882;27.680;85.304;2023-07-22T14:50:13;24.20;99.90
50907;DHT22;36882;27.680;85.304;2023-07-22T14:52:42;24.30;99.90
50907;DHT22;36882;27.680;85.304;2023-07-22T14:55:12;24.40;99.90
50907;DHT22;36882;27.680;85.304;2023-07-22T14:57:42;24.40;99.90
50907;DHT22;36882;27.680;85.304;2023-07-22T15:00:12;24.40;99.90
50907;DHT22;36882;27.680;85.304;2023-07-22T15:02:47;24.20;99.90
50907;DHT22;36882;27.680;85.304;2023-07-22T15:05:17;24.20;99.90
50907;DHT22;36882;27.680;85.304;2023-07-22T15:07:47;24.40;99.90
50907;DHT22;36882;27.680;85.304;2023-07-22T15:10:16;24.40;99.90
50907;DHT22;36882;27.680;85.304;2023-07-22T15:12:46;24.40;99.90
50907;DHT22;36882;27.680;85.304;2023-07-22T15:15:18;24.20;99.90
50907;DHT22;36882;27.680;85.304;2023-07-22T15:17:48;24.20;99.90
50907;DHT22;36882;27.680;85.304;2023-07-22T15:20:17;24.20;99.90
50907;DHT22;36882;27.680;85.304;2023-07-22T15:22:50;24.10;99.90
50907;DHT22;36882;27.680;85.304;2023-07-22T15:25:24;24.00;99.90
50907;DHT22;36882;27.680;85.304;2023-07-22T15:28:00;24.10;99.90
50907;DHT22;36882;27.680;85.304;2023-07-22T15:30:29;24.10;99.90
50907;DHT22;36882;27.680;85.304;2023-07-22T15:32:59;24.10;99.90
50907;DHT22;36882;27.680;85.304;2023-07-22T15:35:29;24.20;99.90
50907;DHT22;36882;27.680;85.304;2023-07-22T15:37:59;24.30;99.90
50907;DHT22;36882;27.680;85.304;2023-07-22T15:40:28;24.10;99.90
50907;DHT22;36882;27.680;85.304;2023-07-22T15:42:58;24.30;99.90
50907;DHT22;36882;27.680;85.304;2023-07-22T15:45:28;24.30;99.90
50907;DHT22;36882;27.680;85.304;2023-07-22T15:47:57;24.30;99.90
50907;DHT22;36882;27.680;85.304;2023-07-22T15:50:28;24.20;99.90
50907;DHT22;36882;27.680;85.304;2023-07-22T15:52:58;24.20;99.90
50907;DHT22;36882;27.680;85.304;2023-07-22T15:55:28;24.20;99.90
50907;DHT22;36882;27.680;85.304;2023-07-22T15:57:58;24.20;99.90
50907;DHT22;36882;27.680;85.304;2023-07-22T16:00:27;24.10;99.90
50907;DHT22;36882;27.680;85.304;2023-07-22T16:02:57;24.10;99.90
50907;DHT22;36882;27.680;85.304;2023-07-22T16:05:27;24.20;99.90
50907;DHT22;36882;27.680;85.304;2023-07-22T16:07:57;24.10;99.90
50907;DHT22;36882;27.680;85.304;2023-07-22T16:10:26;24.20;99.90
50907;DHT22;36882;27.680;85.304;2023-07-22T16:12:56;24.20;99.90
50907;DHT22;36882;27.680;85.304;2023-07-22T16:15:26;24.30;99.90
50907;DHT22;36882;27.680;85.304;2023-07-22T16:17:59;24.30;99.90
50907;DHT22;36882;27.680;85.304;2023-07-22T16:20:29;24.20;99.90
50907;DHT22;36882;27.680;85.304;2023-07-22T16:23:00;24.20;99.90
50907;DHT22;36882;27.680;85.304;2023-07-22T16:25:30;24.10;99.90
50907;DHT22;36882;27.680;85.304;2023-07-22T16:28:01;24.10;99.90
50907;DHT22;36882;27.680;85.304;2023-07-22T16:30:31;24.10;99.90
50907;DHT22;36882;27.680;85.304;2023-07-22T16:33:01;24.10;99.90
50907;DHT22;36882;27.680;85.304;2023-07-22T16:35:30;24.00;99.90
50907;DHT22;36882;27.680;85.304;2023-07-22T16:38:00;24.10;99.90
50907;DHT22;36882;27.680;85.304;2023-07-22T16:40:30;24.10;99.90
50907;DHT22;36882;27.680;85.304;2023-07-22T16:43:00;24.10;99.90
50907;DHT22;36882;27.680;85.304;2023-07-22T16:45:30;24.20;99.90
50907;DHT22;36882;27.680;85.304;2023-07-22T16:47:59;24.10;99.90
50907;DHT22;36882;27.680;85.304;2023-07-22T16:50:29;24.10;99.90
50907;DHT22;36882;27.680;85.304;2023-07-22T16:52:59;24.10;99.90
50907;DHT22;36882;27.680;85.304;2023-07-22T16:55:32;24.10;99.90
50907;DHT22;36882;27.680;85.304;2023-07-22T16:58:01;24.10;99.90
50907;DHT22;36882;27.680;85.304;2023-07-22T17:00:31;24.00;99.90
50907;DHT22;36882;27.680;85.304;2023-07-22T17:03:01;24.00;99.90
50907;DHT22;36882;27.680;85.304;2023-07-22T17:05:31;24.00;99.90
50907;DHT22;36882;27.680;85.304;2023-07-22T17:08:01;24.00;99.90
50907;DHT22;36882;27.680;85.304;2023-07-22T17:10:31;24.10;99.90
50907;DHT22;36882;27.680;85.304;2023-07-22T17:13:01;24.00;99.90
50907;DHT22;36882;27.680;85.304;2023-07-22T17:15:30;24.00;99.90
50907;DHT22;36882;27.680;85.304;2023-07-22T17:18:00;24.00;99.90
50907;DHT22;36882;27.680;85.304;2023-07-22T17:20:31;24.00;99.90
50907;DHT22;36882;27.680;85.304;2023-07-22T17:23:00;24.00;99.90
50907;DHT22;36882;27.680;85.304;2023-07-22T17:25:30;24.00;99.90
50907;DHT22;36882;27.680;85.304;2023-07-22T17:28:00;24.10;99.90
50907;DHT22;36882;27.680;85.304;2023-07-22T17:30:30;24.10;99.90
50907;DHT22;36882;27.680;85.304;2023-07-22T17:33:02;24.00;99.90
50907;DHT22;36882;27.680;85.304;2023-07-22T17:35:34;24.00;99.90
50907;DHT22;36882;27.680;85.304;2023-07-22T17:38:05;24.00;99.90
50907;DHT22;36882;27.680;85.304;2023-07-22T17:40:35;24.00;99.90
50907;DHT22;36882;27.680;85.304;2023-07-22T17:43:06;24.00;99.90
50907;DHT22;36882;27.680;85.304;2023-07-22T17:45:35;24.00;99.90
50907;DHT22;36882;27.680;85.304;2023-07-22T17:48:05;23.90;99.90
50907;DHT22;36882;27.680;85.304;2023-07-22T17:50:37;23.90;99.90
50907;DHT22;36882;27.680;85.304;2023-07-22T17:53:07;23.80;99.90
50907;DHT22;36882;27.680;85.304;2023-07-22T17:55:37;23.80;99.90
50907;DHT22;36882;27.680;85.304;2023-07-22T17:58:07;23.90;99.90
50907;DHT22;36882;27.680;85.304;2023-07-22T18:00:37;23.80;99.90
50907;DHT22;36882;27.680;85.304;2023-07-22T18:03:07;23.90;99.90
50907;DHT22;36882;27.680;85.304;2023-07-22T18:05:38;23.80;99.90
50907;DHT22;36882;27.680;85.304;2023-07-22T18:08:08;23.80;99.90
50907;DHT22;36882;27.680;85.304;2023-07-22T18:10:41;23.80;99.90
50907;DHT22;36882;27.680;85.304;2023-07-22T18:13:11;23.70;99.90
50907;DHT22;36882;27.680;85.304;2023-07-22T18:15:41;23.80;99.90
50907;DHT22;36882;27.680;85.304;2023-07-22T18:18:10;23.70;99.90
50907;DHT22;36882;27.680;85.304;2023-07-22T18:20:41;23.70;99.90
50907;DHT22;36882;27.680;85.304;2023-07-22T18:23:11;23.70;99.90
50907;DHT22;36882;27.680;85.304;2023-07-22T18:25:41;23.70;99.90
50907;DHT22;36882;27.680;85.304;2023-07-22T18:28:10;23.70;99.90
50907;DHT22;36882;27.680;85.304;2023-07-22T18:30:41;23.60;99.90
50907;DHT22;36882;27.680;85.304;2023-07-22T18:33:11;23.70;99.90
50907;DHT22;36882;27.680;85.304;2023-07-22T18:35:49;23.70;99.90
50907;DHT22;36882;27.680;85.304;2023-07-22T18:38:20;23.70;99.90
50907;DHT22;36882;27.680;85.304;2023-07-22T18:40:50;23.70;99.90
50907;DHT22;36882;27.680;85.304;2023-07-22T18:43:20;23.60;99.90
50907;DHT22;36882;27.680;85.304;2023-07-22T18:45:50;23.60;99.90
50907;DHT22;36882;27.680;85.304;2023-07-22T18:48:20;23.60;99.90
50907;DHT22;36882;27.680;85.304;2023-07-22T18:50:57;23.70;99.90
50907;DHT22;36882;27.680;85.304;2023-07-22T18:53:27;23.60;99.90
50907;DHT22;36882;27.680;85.304;2023-07-22T18:55:56;23.70;99.90
50907;DHT22;36882;27.680;85.304;2023-07-22T18:58:26;23.60;99.90
50907;DHT22;36882;27.680;85.304;2023-07-22T19:00:55;23.60;99.90
50907;DHT22;36882;27.680;85.304;2023-07-22T19:03:26;23.60;99.90
50907;DHT22;36882;27.680;85.304;2023-07-22T19:05:55;23.60;99.90
50907;DHT22;36882;27.680;85.304;2023-07-22T19:08:26;23.60;99.90
50907;DHT22;36882;27.680;85.304;2023-07-22T19:10:56;23.60;99.90
50907;DHT22;36882;27.680;85.304;2023-07-22T19:13:25;23.60;99.90
50907;DHT22;36882;27.680;85.304;2023-07-22T19:15:55;23.60;99.90
50907;DHT22;36882;27.680;85.304;2023-07-22T19:18:24;23.70;99.90
50907;DHT22;36882;27.680;85.304;2023-07-22T19:20:59;23.70;99.90
50907;DHT22;36882;27.680;85.304;2023-07-22T19:23:29;23.60;99.90
50907;DHT22;36882;27.680;85.304;2023-07-22T19:26:00;23.70;99.90
50907;DHT22;36882;27.680;85.304;2023-07-22T19:28:33;23.70;99.90
50907;DHT22;36882;27.680;85.304;2023-07-22T19:31:04;23.70;99.90
50907;DHT22;36882;27.680;85.304;2023-07-22T19:33:34;23.70;99.90
50907;DHT22;36882;27.680;85.304;2023-07-22T19:36:08;23.70;99.90
50907;DHT22;36882;27.680;85.304;2023-07-22T19:38:38;23.60;99.90
50907;DHT22;36882;27.680;85.304;2023-07-22T19:41:08;23.70;99.90
50907;DHT22;36882;27.680;85.304;2023-07-22T19:43:42;23.60;99.90
50907;DHT22;36882;27.680;85.304;2023-07-22T19:46:14;23.60;99.90
50907;DHT22;36882;27.680;85.304;2023-07-22T19:48:45;23.60;99.90
50907;DHT22;36882;27.680;85.304;2023-07-22T19:51:16;23.60;99.90
50907;DHT22;36882;27.680;85.304;2023-07-22T19:53:47;23.50;99.90
50907;DHT22;36882;27.680;85.304;2023-07-22T19:56:17;23.50;99.90
50907;DHT22;36882;27.680;85.304;2023-07-22T19:58:46;23.50;99.90
50907;DHT22;36882;27.680;85.304;2023-07-22T20:01:16;23.40;99.90
50907;DHT22;36882;27.680;85.304;2023-07-22T20:03:49;23.40;99.90
50907;DHT22;36882;27.680;85.304;2023-07-22T20:06:19;23.40;99.90
50907;DHT22;36882;27.680;85.304;2023-07-22T20:08:50;23.30;99.90
50907;DHT22;36882;27.680;85.304;2023-07-22T20:11:20;23.30;99.90
50907;DHT22;36882;27.680;85.304;2023-07-22T20:13:50;23.30;99.90
50907;DHT22;36882;27.680;85.304;2023-07-22T20:16:19;23.40;99.90
50907;DHT22;36882;27.680;85.304;2023-07-22T20:18:49;23.50;99.90
50907;DHT22;36882;27.680;85.304;2023-07-22T20:21:19;23.50;99.90
50907;DHT22;36882;27.680;85.304;2023-07-22T20:23:48;23.50;99.90
50907;DHT22;36882;27.680;85.304;2023-07-22T20:26:20;23.50;99.90
50907;DHT22;36882;27.680;85.304;2023-07-22T20:28:50;23.30;99.90
50907;DHT22;36882;27.680;85.304;2023-07-22T20:31:20;23.30;99.90
50907;DHT22;36882;27.680;85.304;2023-07-22T20:33:50;23.30;99.90
50907;DHT22;36882;27.680;85.304;2023-07-22T20:36:19;23.40;99.90
50907;DHT22;36882;27.680;85.304;2023-07-22T20:38:49;23.40;99.90
50907;DHT22;36882;27.680;85.304;2023-07-22T20:41:19;23.40;99.90
50907;DHT22;36882;27.680;85.304;2023-07-22T20:43:49;23.40;99.90
50907;DHT22;36882;27.680;85.304;2023-07-22T20:46:18;23.50;99.90
50907;DHT22;36882;27.680;85.304;2023-07-22T20:48:48;23.50;99.90
50907;DHT22;36882;27.680;85.304;2023-07-22T20:51:17;23.60;99.90
50907;DHT22;36882;27.680;85.304;2023-07-22T20:53:48;23.60;99.90
50907;DHT22;36882;27.680;85.304;2023-07-22T20:56:18;23.50;99.90
50907;DHT22;36882;27.680;85.304;2023-07-22T20:58:48;23.60;99.90
50907;DHT22;36882;27.680;85.304;2023-07-22T21:01:17;23.60;99.90
50907;DHT22;36882;27.680;85.304;2023-07-22T21:03:49;23.50;99.90
50907;DHT22;36882;27.680;85.304;2023-07-22T21:06:19;23.50;99.90
50907;DHT22;36882;27.680;85.304;2023-07-22T21:08:49;23.50;99.90
50907;DHT22;36882;27.680;85.304;2023-07-22T21:11:18;23.50;99.90
50907;DHT22;36882;27.680;85.304;2023-07-22T21:13:48;23.50;99.90
50907;DHT22;36882;27.680;85.304;2023-07-22T21:16:18;23.40;99.90
50907;DHT22;36882;27.680;85.304;2023-07-22T21:18:47;23.50;99.90
50907;DHT22;36882;27.680;85.304;2023-07-22T21:21:17;23.60;99.90
50907;DHT22;36882;27.680;85.304;2023-07-22T21:23:46;23.60;99.90
50907;DHT22;36882;27.680;85.304;2023-07-22T21:26:16;23.50;99.90
50907;DHT22;36882;27.680;85.304;2023-07-22T21:28:47;23.60;99.90
50907;DHT22;36882;27.680;85.304;2023-07-22T21:31:16;23.60;99.90
50907;DHT22;36882;27.680;85.304;2023-07-22T21:33:46;23.70;99.90
50907;DHT22;36882;27.680;85.304;2023-07-22T21:36:17;23.60;99.90
50907;DHT22;36882;27.680;85.304;2023-07-22T21:38:46;23.60;99.90
50907;DHT22;36882;27.680;85.304;2023-07-22T21:41:16;23.70;99.90
50907;DHT22;36882;27.680;85.304;2023-07-22T21:43:46;23.50;99.90
50907;DHT22;36882;27.680;85.304;2023-07-22T22:00:36;23.30;99.90
50907;DHT22;36882;27.680;85.304;2023-07-22T22:03:06;23.40;99.90
50907;DHT22;36882;27.680;85.304;2023-07-22T22:05:39;23.40;99.90
50907;DHT22;36882;27.680;85.304;2023-07-22T22:08:09;23.40;99.90
50907;DHT22;36882;27.680;85.304;2023-07-22T22:10:38;23.40;99.90
50907;DHT22;36882;27.680;85.304;2023-07-22T22:13:08;23.40;99.90
50907;DHT22;36882;27.680;85.304;2023-07-22T22:15:37;23.40;99.90
50907;DHT22;36882;27.680;85.304;2023-07-22T22:18:07;23.40;99.90
50907;DHT22;36882;27.680;85.304;2023-07-22T22:20:37;23.40;99.90
50907;DHT22;36882;27.680;85.304;2023-07-22T22:23:07;23.40;99.90
50907;DHT22;36882;27.680;85.304;2023-07-22T22:25:39;23.40;99.90
50907;DHT22;36882;27.680;85.304;2023-07-22T22:28:09;23.40;99.90
50907;DHT22;36882;27.680;85.304;2023-07-22T22:30:39;23.40;99.90
50907;DHT22;36882;27.680;85.304;2023-07-22T22:33:09;23.30;99.90
50907;DHT22;36882;27.680;85.304;2023-07-22T22:35:39;23.40;99.90
50907;DHT22;36882;27.680;85.304;2023-07-22T22:38:09;23.30;99.90
50907;DHT22;36882;27.680;85.304;2023-07-22T22:40:38;23.30;99.90
50907;DHT22;36882;27.680;85.304;2023-07-22T22:43:08;23.30;99.90
50907;DHT22;36882;27.680;85.304;2023-07-22T22:45:38;23.30;99.90
50907;DHT22;36882;27.680;85.304;2023-07-22T22:48:08;23.30;99.90
50907;DHT22;36882;27.680;85.304;2023-07-22T22:50:38;23.20;99.90
50907;DHT22;36882;27.680;85.304;2023-07-22T22:53:11;23.20;99.90